sensor_id;sensor_type;location;lat;lon;timestamp;pressure;altitude;pressure_sealevel;temperature;humidity
63700;BME280;49845;47.130;142.766;2024-02-14T00:01:00;99910.63;;;1.29;84.48
63700;BME280;49845;47.130;142.766;2024-02-14T00:03:31;99910.06;;;1.49;85.03
63700;BME280;49845;47.130;142.766;2024-02-14T00:06:01;99912.09;;;1.71;84.82
63700;BME280;49845;47.130;142.766;2024-02-14T00:08:34;99913.03;;;1.78;84.34
63700;BME280;49845;47.130;142.766;2024-02-14T00:11:06;99917.34;;;1.78;83.20
63700;BME280;49845;47.130;142.766;2024-02-14T00:13:38;99922.53;;;1.81;82.44
63700;BME280;49845;47.130;142.766;2024-02-14T00:16:08;99912.09;;;1.71;81.73
63700;BME280;49845;47.130;142.766;2024-02-14T00:18:38;99932.59;;;1.62;82.46
63700;BME280;49845;47.130;142.766;2024-02-14T00:21:09;99939.63;;;1.76;82.33
63700;BME280;49845;47.130;142.766;2024-02-14T00:23:39;99946.66;;;1.89;82.05
63700;BME280;49845;47.130;142.766;2024-02-14T00:26:10;99955.28;;;1.91;81.21
63700;BME280;49845;47.130;142.766;2024-02-14T00:28:43;99946.13;;;1.52;80.36
63700;BME280;49845;47.130;142.766;2024-02-14T00:31:13;99970.94;;;0.94;80.29
63700;BME280;49845;47.130;142.766;2024-02-14T00:33:43;99981.28;;;0.09;82.39
63700;BME280;49845;47.130;142.766;2024-02-14T00:36:15;99976.69;;;-0.43;84.50
63700;BME280;49845;47.130;142.766;2024-02-14T00:38:46;99983.09;;;-0.25;85.25
63700;BME280;49845;47.130;142.766;2024-02-14T00:41:16;99989.63;;;-0.02;85.50
63700;BME280;49845;47.130;142.766;2024-02-14T00:43:48;99997.06;;;0.27;85.04
63700;BME280;49845;47.130;142.766;2024-02-14T00:46:19;99999.44;;;0.59;79.71
63700;BME280;49845;47.130;142.766;2024-02-14T00:48:49;100013.81;;;0.95;77.32
63700;BME280;49845;47.130;142.766;2024-02-14T00:51:20;100006.44;;;1.15;74.79
63700;BME280;49845;47.130;142.766;2024-02-14T00:53:52;100015.19;;;1.24;73.58
63700;BME280;49845;47.130;142.766;2024-02-14T00:56:22;100016.09;;;1.26;71.36
63700;BME280;49845;47.130;142.766;2024-02-14T00:58:55;100029.91;;;1.32;70.75
63700;BME280;49845;47.130;142.766;2024-02-14T01:01:25;100028.16;;;1.27;69.23
63700;BME280;49845;47.130;142.766;2024-02-14T01:03:56;100043.47;;;1.21;66.69
63700;BME280;49845;47.130;142.766;2024-02-14T01:06:26;100034.84;;;1.19;68.11
63700;BME280;49845;47.130;142.766;2024-02-14T01:08:57;100045.13;;;1.19;68.11
63700;BME280;49845;47.130;142.766;2024-02-14T01:11:28;100051.91;;;1.13;67.15
63700;BME280;49845;47.130;142.766;2024-02-14T01:14:00;100041.63;;;1.14;67.87
63700;BME280;49845;47.130;142.766;2024-02-14T01:16:31;100060.44;;;1.10;66.81
63700;BME280;49845;47.130;142.766;2024-02-14T01:19:01;100061.69;;;0.85;67.97
63700;BME280;49845;47.130;142.766;2024-02-14T01:21:32;100063.53;;;0.94;67.33
63700;BME280;49845;47.130;142.766;2024-02-14T01:24:03;100060.13;;;0.95;68.18
63700;BME280;49845;47.130;142.766;2024-02-14T01:26:33;100061.97;;;1.02;68.17
63700;BME280;49845;47.130;142.766;2024-02-14T01:29:06;100072.44;;;1.11;69.08
63700;BME280;49845;47.130;142.766;2024-02-14T01:31:36;100069.16;;;1.18;68.82
63700;BME280;49845;47.130;142.766;2024-02-14T01:34:07;100077.66;;;1.14;69.35
63700;BME280;49845;47.130;142.766;2024-02-14T01:36:37;100075.88;;;1.10;69.38
63700;BME280;49845;47.130;142.766;2024-02-14T01:39:09;100075.50;;;0.92;69.63
63700;BME280;49845;47.130;142.766;2024-02-14T01:41:45;100077.25;;;0.93;70.01
63700;BME280;49845;47.130;142.766;2024-02-14T01:44:18;100073.94;;;1.00;70.86
63700;BME280;49845;47.130;142.766;2024-02-14T01:46:49;100081.03;;;1.10;70.72
63700;BME280;49845;47.130;142.766;2024-02-14T01:49:21;100084.59;;;1.18;68.84
63700;BME280;49845;47.130;142.766;2024-02-14T01:51:52;100086.41;;;1.22;68.36
63700;BME280;49845;47.130;142.766;2024-02-14T01:54:22;100084.88;;;1.34;69.75
63700;BME280;49845;47.130;142.766;2024-02-14T01:56:54;100093.44;;;1.33;67.43
63700;BME280;49845;47.130;142.766;2024-02-14T01:59:28;100088.22;;;1.29;68.19
63700;BME280;49845;47.130;142.766;2024-02-14T02:01:59;100100.22;;;1.27;67.22
63700;BME280;49845;47.130;142.766;2024-02-14T02:04:30;100100.03;;;1.18;66.50
63700;BME280;49845;47.130;142.766;2024-02-14T02:07:01;100102.72;;;1.23;67.50
63700;BME280;49845;47.130;142.766;2024-02-14T02:09:32;100102.91;;;1.34;67.03
63700;BME280;49845;47.130;142.766;2024-02-14T02:12:02;100107.72;;;1.62;67.46
63700;BME280;49845;47.130;142.766;2024-02-14T02:14:38;100121.78;;;1.83;65.28
63700;BME280;49845;47.130;142.766;2024-02-14T02:17:08;100106.38;;;1.86;63.17
63700;BME280;49845;47.130;142.766;2024-02-14T02:19:39;100122.00;;;1.46;62.73
63700;BME280;49845;47.130;142.766;2024-02-14T02:22:10;100132.13;;;1.37;63.96
63700;BME280;49845;47.130;142.766;2024-02-14T02:24:42;100114.91;;;1.35;64.47
63700;BME280;49845;47.130;142.766;2024-02-14T02:27:13;100118.06;;;1.18;64.84
63700;BME280;49845;47.130;142.766;2024-02-14T02:29:44;100114.88;;;0.88;64.89
63700;BME280;49845;47.130;142.766;2024-02-14T02:32:15;100133.44;;;0.74;65.35
63700;BME280;49845;47.130;142.766;2024-02-14T02:34:46;100145.00;;;0.54;65.77
63700;BME280;49845;47.130;142.766;2024-02-14T02:37:17;100123.19;;;0.36;65.81
63700;BME280;49845;47.130;142.766;2024-02-14T02:39:49;100135.84;;;0.27;66.36
63700;BME280;49845;47.130;142.766;2024-02-14T02:42:19;100144.97;;;0.14;66.17
63700;BME280;49845;47.130;142.766;2024-02-14T02:44:50;100140.25;;;-0.04;66.05
63700;BME280;49845;47.130;142.766;2024-02-14T02:47:21;100143.66;;;-0.05;66.44
63700;BME280;49845;47.130;142.766;2024-02-14T02:49:51;100138.44;;;-0.08;65.60
63700;BME280;49845;47.130;142.766;2024-02-14T02:52:22;100150.69;;;0.03;65.35
63700;BME280;49845;47.130;142.766;2024-02-14T02:54:54;100150.03;;;0.11;64.30
63700;BME280;49845;47.130;142.766;2024-02-14T02:57:24;100145.75;;;0.12;64.19
63700;BME280;49845;47.130;142.766;2024-02-14T02:59:55;100152.66;;;0.13;64.59
63700;BME280;49845;47.130;142.766;2024-02-14T03:02:26;100148.13;;;0.03;63.55
63700;BME280;49845;47.130;142.766;2024-02-14T03:04:56;100154.88;;;-0.01;63.01
63700;BME280;49845;47.130;142.766;2024-02-14T03:07:27;100156.91;;;0.12;63.88
63700;BME280;49845;47.130;142.766;2024-02-14T03:09:59;100143.97;;;0.09;63.10
63700;BME280;49845;47.130;142.766;2024-02-14T03:12:31;100162.94;;;0.13;61.93
63700;BME280;49845;47.130;142.766;2024-02-14T03:15:04;100165.53;;;0.14;63.06
63700;BME280;49845;47.130;142.766;2024-02-14T03:17:38;100174.81;;;0.08;62.11
63700;BME280;49845;47.130;142.766;2024-02-14T03:20:09;100171.31;;;0.06;62.15
63700;BME280;49845;47.130;142.766;2024-02-14T03:22:44;100177.56;;;0.15;62.39
63700;BME280;49845;47.130;142.766;2024-02-14T03:25:18;100180.44;;;0.29;62.39
63700;BME280;49845;47.130;142.766;2024-02-14T03:27:49;100186.56;;;0.34;60.84
63700;BME280;49845;47.130;142.766;2024-02-14T03:30:21;100192.66;;;0.39;60.45
63700;BME280;49845;47.130;142.766;2024-02-14T03:32:52;100163.75;;;0.12;59.36
63700;BME280;49845;47.130;142.766;2024-02-14T03:35:24;100211.44;;;0.35;58.82
63700;BME280;49845;47.130;142.766;2024-02-14T03:37:55;100217.19;;;0.25;57.83
63700;BME280;49845;47.130;142.766;2024-02-14T03:40:27;100214.44;;;0.19;56.99
63700;BME280;49845;47.130;142.766;2024-02-14T03:42:58;100223.94;;;0.21;56.85
63700;BME280;49845;47.130;142.766;2024-02-14T03:45:29;100236.66;;;0.17;57.10
63700;BME280;49845;47.130;142.766;2024-02-14T03:47:59;100232.81;;;-0.01;56.71
63700;BME280;49845;47.130;142.766;2024-02-14T03:50:29;100245.09;;;-0.22;56.77
63700;BME280;49845;47.130;142.766;2024-02-14T03:53:01;100247.47;;;-0.28;57.28
63700;BME280;49845;47.130;142.766;2024-02-14T03:55:33;100256.75;;;-0.33;57.78
63700;BME280;49845;47.130;142.766;2024-02-14T03:58:04;100258.97;;;-0.46;57.32
63700;BME280;49845;47.130;142.766;2024-02-14T04:00:36;100270.00;;;-0.50;57.76
63700;BME280;49845;47.130;142.766;2024-02-14T04:03:07;100262.19;;;-0.53;57.89
63700;BME280;49845;47.130;142.766;2024-02-14T04:05:38;100267.59;;;-0.44;58.27
63700;BME280;49845;47.130;142.766;2024-02-14T04:08:08;100278.75;;;-0.43;57.21
63700;BME280;49845;47.130;142.766;2024-02-14T04:10:41;100253.94;;;-0.73;57.51
63700;BME280;49845;47.130;142.766;2024-02-14T04:13:12;100293.75;;;-0.57;57.59
63700;BME280;49845;47.130;142.766;2024-02-14T04:15:43;100289.56;;;-0.55;58.25
63700;BME280;49845;47.130;142.766;2024-02-14T04:18:14;100268.38;;;-0.76;57.40
63700;BME280;49845;47.130;142.766;2024-02-14T04:20:46;100299.53;;;-0.64;57.23
63700;BME280;49845;47.130;142.766;2024-02-14T04:23:17;100304.66;;;-0.64;57.46
63700;BME280;49845;47.130;142.766;2024-02-14T04:25:49;100308.66;;;-0.74;56.84
63700;BME280;49845;47.130;142.766;2024-02-14T04:28:20;100315.28;;;-0.80;56.99
63700;BME280;49845;47.130;142.766;2024-02-14T04:30:50;100310.91;;;-0.84;57.02
63700;BME280;49845;47.130;142.766;2024-02-14T04:33:21;100263.69;;;-1.18;57.42
63700;BME280;49845;47.130;142.766;2024-02-14T04:35:52;100321.34;;;-0.78;57.45
63700;BME280;49845;47.130;142.766;2024-02-14T04:38:23;100326.53;;;-0.77;57.77
63700;BME280;49845;47.130;142.766;2024-02-14T04:40:55;100317.06;;;-0.78;56.64
63700;BME280;49845;47.130;142.766;2024-02-14T04:43:26;100321.06;;;-0.88;56.60
63700;BME280;49845;47.130;142.766;2024-02-14T04:45:57;100340.47;;;-0.96;56.16
63700;BME280;49845;47.130;142.766;2024-02-14T04:48:30;100338.88;;;-1.19;56.27
63700;BME280;49845;47.130;142.766;2024-02-14T04:51:01;100347.38;;;-1.20;57.49
63700;BME280;49845;47.130;142.766;2024-02-14T04:53:32;100354.06;;;-1.25;56.58
63700;BME280;49845;47.130;142.766;2024-02-14T04:56:05;100348.75;;;-1.32;56.15
63700;BME280;49845;47.130;142.766;2024-02-14T04:58:36;100353.66;;;-1.38;56.74
63700;BME280;49845;47.130;142.766;2024-02-14T05:01:06;100349.00;;;-1.49;57.04
63700;BME280;49845;47.130;142.766;2024-02-14T05:03:37;100364.94;;;-1.58;56.68
63700;BME280;49845;47.130;142.766;2024-02-14T05:06:07;100368.09;;;-1.65;57.13
63700;BME280;49845;47.130;142.766;2024-02-14T05:08:38;100379.78;;;-1.74;56.68
63700;BME280;49845;47.130;142.766;2024-02-14T05:11:10;100379.44;;;-1.83;57.11
63700;BME280;49845;47.130;142.766;2024-02-14T05:13:40;100376.63;;;-1.90;56.24
63700;BME280;49845;47.130;142.766;2024-02-14T05:16:12;100387.28;;;-2.02;56.04
63700;BME280;49845;47.130;142.766;2024-02-14T05:18:42;100382.28;;;-1.99;57.10
63700;BME280;49845;47.130;142.766;2024-02-14T05:21:13;100391.78;;;-1.97;55.83
63700;BME280;49845;47.130;142.766;2024-02-14T05:23:43;100376.06;;;-2.06;56.59
63700;BME280;49845;47.130;142.766;2024-02-14T05:26:15;100355.81;;;-2.24;56.50
63700;BME280;49845;47.130;142.766;2024-02-14T05:28:55;100374.84;;;-2.15;57.05
63700;BME280;49845;47.130;142.766;2024-02-14T05:31:43;100377.22;;;-2.22;56.05
63700;BME280;49845;47.130;142.766;2024-02-14T05:34:14;100377.13;;;-2.23;56.63
63700;BME280;49845;47.130;142.766;2024-02-14T05:36:44;100390.81;;;-2.23;56.70
63700;BME280;49845;47.130;142.766;2024-02-14T05:39:15;100391.53;;;-2.27;56.75
63700;BME280;49845;47.130;142.766;2024-02-14T05:41:46;100396.28;;;-2.36;57.37
63700;BME280;49845;47.130;142.766;2024-02-14T05:44:19;100391.75;;;-2.43;57.24
63700;BME280;49845;47.130;142.766;2024-02-14T05:46:50;100396.03;;;-2.42;57.73
63700;BME280;49845;47.130;142.766;2024-02-14T05:49:21;100378.97;;;-2.43;58.33
63700;BME280;49845;47.130;142.766;2024-02-14T05:51:53;100389.84;;;-2.49;58.23
63700;BME280;49845;47.130;142.766;2024-02-14T05:54:24;100388.97;;;-2.49;58.77
63700;BME280;49845;47.130;142.766;2024-02-14T05:56:55;100385.22;;;-2.57;58.66
63700;BME280;49845;47.130;142.766;2024-02-14T05:59:27;100424.44;;;-2.58;56.98
63700;BME280;49845;47.130;142.766;2024-02-14T06:01:59;100412.22;;;-2.66;56.88
63700;BME280;49845;47.130;142.766;2024-02-14T06:04:31;100425.69;;;-2.70;56.44
63700;BME280;49845;47.130;142.766;2024-02-14T06:07:02;100420.44;;;-2.73;57.54
63700;BME280;49845;47.130;142.766;2024-02-14T06:09:34;100420.56;;;-2.70;58.53
63700;BME280;49845;47.130;142.766;2024-02-14T06:12:05;100427.31;;;-2.72;56.86
63700;BME280;49845;47.130;142.766;2024-02-14T06:14:37;100432.19;;;-2.78;57.40
63700;BME280;49845;47.130;142.766;2024-02-14T06:17:07;100447.78;;;-2.93;55.98
63700;BME280;49845;47.130;142.766;2024-02-14T06:19:38;100448.28;;;-3.01;56.46
63700;BME280;49845;47.130;142.766;2024-02-14T06:22:08;100461.00;;;-3.03;57.43
63700;BME280;49845;47.130;142.766;2024-02-14T06:24:39;100466.84;;;-3.06;56.46
63700;BME280;49845;47.130;142.766;2024-02-14T06:27:09;100459.84;;;-3.10;56.80
63700;BME280;49845;47.130;142.766;2024-02-14T06:29:44;100458.13;;;-3.11;57.57
63700;BME280;49845;47.130;142.766;2024-02-14T06:32:14;100451.13;;;-3.15;57.72
63700;BME280;49845;47.130;142.766;2024-02-14T06:34:45;100465.34;;;-3.21;57.24
63700;BME280;49845;47.130;142.766;2024-02-14T06:37:16;100461.84;;;-3.23;58.37
63700;BME280;49845;47.130;142.766;2024-02-14T06:39:46;100478.72;;;-3.27;57.80
63700;BME280;49845;47.130;142.766;2024-02-14T06:42:18;100482.75;;;-3.32;57.26
63700;BME280;49845;47.130;142.766;2024-02-14T06:44:50;100484.41;;;-3.34;57.38
63700;BME280;49845;47.130;142.766;2024-02-14T06:47:20;100490.09;;;-3.40;56.89
63700;BME280;49845;47.130;142.766;2024-02-14T06:49:51;100492.31;;;-3.48;56.89
63700;BME280;49845;47.130;142.766;2024-02-14T06:52:21;100484.53;;;-3.51;57.34
63700;BME280;49845;47.130;142.766;2024-02-14T06:54:52;100486.84;;;-3.57;57.39
63700;BME280;49845;47.130;142.766;2024-02-14T06:57:22;100493.56;;;-3.59;57.45
63700;BME280;49845;47.130;142.766;2024-02-14T06:59:54;100504.34;;;-3.64;57.23
63700;BME280;49845;47.130;142.766;2024-02-14T07:02:25;100501.63;;;-3.69;57.61
63700;BME280;49845;47.130;142.766;2024-02-14T07:04:57;100496.34;;;-3.72;57.26
63700;BME280;49845;47.130;142.766;2024-02-14T07:07:27;100490.97;;;-3.78;57.68
63700;BME280;49845;47.130;142.766;2024-02-14T07:09:57;100485.59;;;-3.84;59.48
63700;BME280;49845;47.130;142.766;2024-02-14T07:12:28;100505.09;;;-3.86;59.43
63700;BME280;49845;47.130;142.766;2024-02-14T07:15:01;100507.47;;;-3.90;59.67
63700;BME280;49845;47.130;142.766;2024-02-14T07:17:32;100505.63;;;-3.94;59.61
63700;BME280;49845;47.130;142.766;2024-02-14T07:20:04;100514.78;;;-3.97;60.34
63700;BME280;49845;47.130;142.766;2024-02-14T07:22:37;100511.88;;;-4.05;61.22
63700;BME280;49845;47.130;142.766;2024-02-14T07:25:08;100523.56;;;-4.10;60.41
63700;BME280;49845;47.130;142.766;2024-02-14T07:27:39;100535.38;;;-4.12;59.02
63700;BME280;49845;47.130;142.766;2024-02-14T07:30:12;100536.84;;;-4.17;59.05
63700;BME280;49845;47.130;142.766;2024-02-14T07:32:43;100541.66;;;-4.23;58.47
63700;BME280;49845;47.130;142.766;2024-02-14T07:35:14;100548.22;;;-4.28;58.20
63700;BME280;49845;47.130;142.766;2024-02-14T07:37:45;100547.91;;;-4.35;58.58
63700;BME280;49845;47.130;142.766;2024-02-14T07:40:16;100548.50;;;-4.40;58.75
63700;BME280;49845;47.130;142.766;2024-02-14T07:42:46;100544.13;;;-4.43;58.79
63700;BME280;49845;47.130;142.766;2024-02-14T07:45:18;100552.41;;;-4.47;59.35
63700;BME280;49845;47.130;142.766;2024-02-14T07:47:49;100553.88;;;-4.52;59.52
63700;BME280;49845;47.130;142.766;2024-02-14T07:50:20;100555.56;;;-4.52;59.73
63700;BME280;49845;47.130;142.766;2024-02-14T07:52:51;100560.50;;;-4.56;60.57
63700;BME280;49845;47.130;142.766;2024-02-14T07:55:21;100565.38;;;-4.60;61.11
63700;BME280;49845;47.130;142.766;2024-02-14T07:57:52;100575.72;;;-4.57;61.33
63700;BME280;49845;47.130;142.766;2024-02-14T08:00:24;100581.72;;;-4.57;61.61
63700;BME280;49845;47.130;142.766;2024-02-14T08:02:55;100577.19;;;-4.62;61.91
63700;BME280;49845;47.130;142.766;2024-02-14T08:05:25;100578.63;;;-4.67;61.75
63700;BME280;49845;47.130;142.766;2024-02-14T08:07:56;100572.44;;;-4.72;61.54
63700;BME280;49845;47.130;142.766;2024-02-14T08:10:26;100568.00;;;-4.77;61.66
63700;BME280;49845;47.130;142.766;2024-02-14T08:12:58;100564.63;;;-4.75;61.02
63700;BME280;49845;47.130;142.766;2024-02-14T08:15:30;100573.88;;;-4.78;61.36
63700;BME280;49845;47.130;142.766;2024-02-14T08:18:01;100566.09;;;-4.81;61.37
63700;BME280;49845;47.130;142.766;2024-02-14T08:20:36;100566.72;;;-4.85;62.03
63700;BME280;49845;47.130;142.766;2024-02-14T08:23:07;100552.56;;;-4.96;62.05
63700;BME280;49845;47.130;142.766;2024-02-14T08:25:37;100565.59;;;-4.90;62.43
63700;BME280;49845;47.130;142.766;2024-02-14T08:28:09;100552.44;;;-4.99;62.86
63700;BME280;49845;47.130;142.766;2024-02-14T08:30:41;100559.88;;;-5.02;63.00
63700;BME280;49845;47.130;142.766;2024-02-14T08:33:12;100559.66;;;-5.07;63.15
63700;BME280;49845;47.130;142.766;2024-02-14T08:35:43;100541.66;;;-5.10;63.54
63700;BME280;49845;47.130;142.766;2024-02-14T08:38:13;100547.63;;;-5.09;63.38
63700;BME280;49845;47.130;142.766;2024-02-14T08:40:45;100562.13;;;-5.08;63.52
63700;BME280;49845;47.130;142.766;2024-02-14T08:43:15;100557.81;;;-5.09;63.28
63700;BME280;49845;47.130;142.766;2024-02-14T08:45:48;100554.41;;;-5.10;63.12
63700;BME280;49845;47.130;142.766;2024-02-14T08:48:20;100551.00;;;-5.10;63.28
63700;BME280;49845;47.130;142.766;2024-02-14T08:50:50;100550.13;;;-5.11;63.18
63700;BME280;49845;47.130;142.766;2024-02-14T08:53:21;100564.69;;;-5.08;63.39
63700;BME280;49845;47.130;142.766;2024-02-14T08:55:54;100558.00;;;-5.06;63.88
63700;BME280;49845;47.130;142.766;2024-02-14T08:58:26;100566.28;;;-5.10;63.63
63700;BME280;49845;47.130;142.766;2024-02-14T09:00:58;100568.19;;;-5.06;63.98
63700;BME280;49845;47.130;142.766;2024-02-14T09:03:40;100568.19;;;-5.06;64.41
63700;BME280;49845;47.130;142.766;2024-02-14T09:06:17;100564.69;;;-5.08;65.39
63700;BME280;49845;47.130;142.766;2024-02-14T09:08:49;100561.19;;;-5.10;66.10
63700;BME280;49845;47.130;142.766;2024-02-14T09:11:20;100570.88;;;-5.20;66.51
63700;BME280;49845;47.130;142.766;2024-02-14T09:13:51;100575.34;;;-5.32;66.12
63700;BME280;49845;47.130;142.766;2024-02-14T09:16:26;100581.88;;;-5.37;66.56
63700;BME280;49845;47.130;142.766;2024-02-14T09:18:56;100573.13;;;-5.42;66.53
63700;BME280;49845;47.130;142.766;2024-02-14T09:21:27;100590.47;;;-5.35;66.83
63700;BME280;49845;47.130;142.766;2024-02-14T09:23:58;100600.34;;;-5.41;66.53
63700;BME280;49845;47.130;142.766;2024-02-14T09:26:28;100589.66;;;-5.50;66.52
63700;BME280;49845;47.130;142.766;2024-02-14T09:28:59;100587.44;;;-5.60;66.22
63700;BME280;49845;47.130;142.766;2024-02-14T09:31:31;100582.72;;;-5.69;66.40
63700;BME280;49845;47.130;142.766;2024-02-14T09:34:01;100580.56;;;-5.78;66.31
63700;BME280;49845;47.130;142.766;2024-02-14T09:36:32;100586.09;;;-5.85;66.49
63700;BME280;49845;47.130;142.766;2024-02-14T09:39:02;100586.56;;;-5.92;66.29
63700;BME280;49845;47.130;142.766;2024-02-14T09:41:37;100576.69;;;-6.02;66.39
63700;BME280;49845;47.130;142.766;2024-02-14T09:44:11;100578.28;;;-6.04;66.67
63700;BME280;49845;47.130;142.766;2024-02-14T09:46:43;100580.75;;;-6.06;66.50
63700;BME280;49845;47.130;142.766;2024-02-14T09:49:16;100570.31;;;-6.11;66.87
63700;BME280;49845;47.130;142.766;2024-02-14T09:51:48;100581.63;;;-6.05;67.31
63700;BME280;49845;47.130;142.766;2024-02-14T09:54:19;100582.75;;;-6.00;67.51
63700;BME280;49845;47.130;142.766;2024-02-14T09:56:50;100580.53;;;-5.94;67.95
63700;BME280;49845;47.130;142.766;2024-02-14T09:59:22;100552.13;;;-6.02;68.14
63700;BME280;49845;47.130;142.766;2024-02-14T10:01:55;100579.59;;;-5.80;68.15
63700;BME280;49845;47.130;142.766;2024-02-14T10:04:25;100591.00;;;-5.73;68.42
63700;BME280;49845;47.130;142.766;2024-02-14T10:06:56;100591.53;;;-5.79;68.49
63700;BME280;49845;47.130;142.766;2024-02-14T10:09:27;100584.00;;;-5.92;67.95
63700;BME280;49845;47.130;142.766;2024-02-14T10:11:58;100576.88;;;-5.99;67.98
63700;BME280;49845;47.130;142.766;2024-02-14T10:14:30;100578.63;;;-5.98;67.54
63700;BME280;49845;47.130;142.766;2024-02-14T10:17:03;100575.13;;;-6.00;67.42
63700;BME280;49845;47.130;142.766;2024-02-14T10:19:33;100592.44;;;-5.93;67.48
63700;BME280;49845;47.130;142.766;2024-02-14T10:22:04;100593.84;;;-5.83;67.73
63700;BME280;49845;47.130;142.766;2024-02-14T10:24:36;100600.09;;;-5.77;68.59
63700;BME280;49845;47.130;142.766;2024-02-14T10:27:07;100595.22;;;-5.74;69.40
63700;BME280;49845;47.130;142.766;2024-02-14T10:29:37;100603.63;;;-5.75;69.55
63700;BME280;49845;47.130;142.766;2024-02-14T10:32:09;100597.56;;;-5.77;69.77
63700;BME280;49845;47.130;142.766;2024-02-14T10:34:41;100591.34;;;-5.82;69.16
63700;BME280;49845;47.130;142.766;2024-02-14T10:37:14;100588.66;;;-6.01;68.38
63700;BME280;49845;47.130;142.766;2024-02-14T10:39:46;100594.97;;;-6.10;68.09
63700;BME280;49845;47.130;142.766;2024-02-14T10:42:20;100591.13;;;-6.18;68.06
63700;BME280;49845;47.130;142.766;2024-02-14T10:44:51;100584.09;;;-6.22;68.07
63700;BME280;49845;47.130;142.766;2024-02-14T10:47:28;100566.78;;;-6.44;67.90
63700;BME280;49845;47.130;142.766;2024-02-14T10:50:01;100587.47;;;-6.53;67.92
63700;BME280;49845;47.130;142.766;2024-02-14T10:52:35;100587.31;;;-6.56;68.36
63700;BME280;49845;47.130;142.766;2024-02-14T10:55:06;100589.84;;;-6.56;68.49
63700;BME280;49845;47.130;142.766;2024-02-14T10:57:37;100578.72;;;-6.58;68.50
63700;BME280;49845;47.130;142.766;2024-02-14T11:00:10;100536.31;;;-6.88;68.42
63700;BME280;49845;47.130;142.766;2024-02-14T11:02:45;100592.28;;;-6.72;69.06
63700;BME280;49845;47.130;142.766;2024-02-14T11:05:17;100528.66;;;-7.03;69.65
63700;BME280;49845;47.130;142.766;2024-02-14T11:07:51;100588.00;;;-6.73;69.66
63700;BME280;49845;47.130;142.766;2024-02-14T11:10:22;100586.59;;;-6.68;70.02
63700;BME280;49845;47.130;142.766;2024-02-14T11:12:54;100581.16;;;-6.59;70.20
63700;BME280;49845;47.130;142.766;2024-02-14T11:15:25;100582.56;;;-6.49;70.29
63700;BME280;49845;47.130;142.766;2024-02-14T11:18:06;100574.06;;;-6.65;70.08
63700;BME280;49845;47.130;142.766;2024-02-14T11:20:38;100602.88;;;-6.35;71.42
63700;BME280;49845;47.130;142.766;2024-02-14T11:23:08;100615.84;;;-6.15;72.13
63700;BME280;49845;47.130;142.766;2024-02-14T11:25:40;100616.72;;;-6.15;71.71
63700;BME280;49845;47.130;142.766;2024-02-14T11:28:13;100607.09;;;-6.20;70.83
63700;BME280;49845;47.130;142.766;2024-02-14T11:30:44;100615.31;;;-6.24;70.38
63700;BME280;49845;47.130;142.766;2024-02-14T11:33:21;100616.22;;;-6.24;70.20
63700;BME280;49845;47.130;142.766;2024-02-14T11:35:53;100616.41;;;-6.21;70.70
63700;BME280;49845;47.130;142.766;2024-02-14T11:38:24;100615.00;;;-6.31;69.87
63700;BME280;49845;47.130;142.766;2024-02-14T11:40:55;100609.81;;;-6.62;68.90
63700;BME280;49845;47.130;142.766;2024-02-14T11:43:26;100627.09;;;-6.71;69.00
63700;BME280;49845;47.130;142.766;2024-02-14T11:45:57;100620.94;;;-6.60;70.13
63700;BME280;49845;47.130;142.766;2024-02-14T11:48:29;100627.97;;;-6.41;71.34
63700;BME280;49845;47.130;142.766;2024-02-14T11:51:00;100622.69;;;-6.29;71.39
63700;BME280;49845;47.130;142.766;2024-02-14T11:53:32;100616.03;;;-6.27;71.04
63700;BME280;49845;47.130;142.766;2024-02-14T11:56:02;100632.38;;;-6.38;70.08
63700;BME280;49845;47.130;142.766;2024-02-14T11:58:35;100628.47;;;-6.46;69.82
63700;BME280;49845;47.130;142.766;2024-02-14T12:01:05;100626.03;;;-6.60;69.24
63700;BME280;49845;47.130;142.766;2024-02-14T12:03:39;100621.28;;;-6.83;69.07
63700;BME280;49845;47.130;142.766;2024-02-14T12:06:10;100625.47;;;-6.99;69.67
63700;BME280;49845;47.130;142.766;2024-02-14T12:08:42;100630.69;;;-7.10;70.16
63700;BME280;49845;47.130;142.766;2024-02-14T12:11:12;100636.97;;;-7.19;70.43
63700;BME280;49845;47.130;142.766;2024-02-14T12:13:43;100631.19;;;-7.16;70.74
63700;BME280;49845;47.130;142.766;2024-02-14T12:16:15;100629.75;;;-6.98;70.97
63700;BME280;49845;47.130;142.766;2024-02-14T12:18:47;100637.13;;;-6.87;71.16
63700;BME280;49845;47.130;142.766;2024-02-14T12:21:18;100642.78;;;-6.91;70.73
63700;BME280;49845;47.130;142.766;2024-02-14T12:23:48;100648.50;;;-6.96;70.96
63700;BME280;49845;47.130;142.766;2024-02-14T12:26:22;100630.97;;;-7.06;71.21
63700;BME280;49845;47.130;142.766;2024-02-14T12:28:52;100638.88;;;-7.14;71.46
63700;BME280;49845;47.130;142.766;2024-02-14T12:31:23;100635.31;;;-7.18;71.99
63700;BME280;49845;47.130;142.766;2024-02-14T12:33:55;100638.81;;;-7.16;72.66
63700;BME280;49845;47.130;142.766;2024-02-14T12:36:28;100632.59;;;-7.21;72.95
63700;BME280;49845;47.130;142.766;2024-02-14T12:38:59;100635.31;;;-7.31;73.25
63700;BME280;49845;47.130;142.766;2024-02-14T12:41:31;100637.78;;;-7.33;73.90
63700;BME280;49845;47.130;142.766;2024-02-14T12:44:03;100638.84;;;-7.29;74.51
63700;BME280;49845;47.130;142.766;2024-02-14T12:46:34;100636.06;;;-7.19;74.91
63700;BME280;49845;47.130;142.766;2024-02-14T12:49:08;100636.91;;;-7.05;75.27
63700;BME280;49845;47.130;142.766;2024-02-14T12:51:39;100617.00;;;-7.12;74.73
63700;BME280;49845;47.130;142.766;2024-02-14T12:54:10;100646.13;;;-6.92;74.79